createdAt,value
2022-12-19T00:00:09.729Z,15.30
2022-12-19T00:05:16.680Z,16.58
2022-12-19T00:10:18.491Z,15.85
2022-12-19T00:15:20.305Z,15.95
2022-12-19T00:20:22.124Z,13.77
2022-12-19T00:25:23.960Z,14.27
2022-12-19T00:30:26.782Z,15.38
2022-12-19T00:35:28.608Z,14.25
2022-12-19T00:40:30.401Z,15.80
2022-12-19T00:45:32.281Z,16.77
2022-12-19T00:50:34.128Z,14.27
2022-12-19T00:55:37.837Z,16.38
2022-12-19T01:00:39.675Z,15.65
2022-12-19T01:05:44.072Z,16.13
2022-12-19T01:10:47.279Z,15.20
2022-12-19T01:15:49.110Z,15.60
2022-12-19T01:20:50.936Z,14.85
2022-12-19T01:25:53.327Z,16.83
2022-12-19T01:30:56.297Z,13.90
2022-12-19T01:35:58.197Z,16.60
2022-12-19T01:41:00.026Z,14.13
2022-12-19T01:46:06.669Z,17.02
2022-12-19T01:51:18.335Z,16.00
2022-12-19T01:56:24.524Z,17.75
2022-12-19T02:01:26.615Z,16.70
2022-12-19T02:06:28.912Z,17.52
2022-12-19T02:11:30.828Z,16.73
2022-12-19T02:16:35.806Z,16.10
2022-12-19T02:21:37.659Z,16.67
2022-12-19T02:26:51.272Z,16.98
2022-12-19T02:31:54.394Z,17.45
2022-12-19T02:37:01.450Z,16.45
2022-12-19T02:42:06.564Z,16.05
2022-12-19T02:47:09.082Z,15.63
2022-12-19T02:52:32.797Z,16.25
2022-12-19T02:57:35.977Z,17.05
2022-12-19T03:03:01.154Z,19.75
2022-12-19T03:08:17.572Z,18.33
2022-12-19T03:13:22.529Z,19.33
2022-12-19T03:18:24.628Z,19.58
2022-12-19T03:23:27.580Z,18.73
2022-12-19T03:28:49.067Z,21.50
2022-12-19T03:33:54.460Z,18.02
2022-12-19T03:38:57.019Z,19.55
2022-12-19T03:43:58.924Z,22.55
2022-12-19T03:49:00.874Z,20.23
2022-12-19T03:54:28.759Z,20.42
2022-12-19T03:59:36.725Z,22.23
2022-12-19T04:04:43.736Z,22.33
2022-12-19T04:09:46.153Z,22.05
2022-12-19T04:14:48.373Z,22.30
2022-12-19T04:20:07.030Z,23.17
2022-12-19T04:25:10.812Z,22.45
2022-12-19T04:30:14.487Z,21.00
2022-12-19T04:35:16.400Z,22.80
2022-12-19T04:40:18.226Z,23.27
2022-12-19T04:45:20.029Z,22.85
2022-12-19T04:50:22.372Z,23.07
2022-12-19T04:55:24.202Z,22.58
2022-12-19T05:00:26.060Z,22.40
2022-12-19T05:05:27.944Z,22.48
2022-12-19T05:10:29.754Z,22.20
2022-12-19T05:15:31.589Z,22.27
2022-12-19T05:20:33.429Z,22.58
2022-12-19T05:25:36.407Z,21.17
2022-12-19T05:30:38.344Z,22.50
2022-12-19T05:35:40.523Z,23.98
2022-12-19T05:40:42.361Z,23.35
2022-12-19T05:45:44.225Z,24.30
2022-12-19T05:50:49.632Z,23.48
2022-12-19T05:55:51.453Z,23.08
2022-12-19T06:00:56.818Z,26.60
2022-12-19T06:06:08.109Z,26.98
2022-12-19T06:11:10.593Z,23.80
2022-12-19T06:16:13.555Z,23.23
2022-12-19T06:21:16.695Z,22.83
2022-12-19T06:26:20.279Z,24.05
2022-12-19T06:31:23.581Z,24.15
2022-12-19T06:36:27.678Z,22.52
2022-12-19T06:41:29.834Z,24.95
2022-12-19T06:46:31.971Z,23.15
2022-12-19T06:51:34.126Z,23.10
2022-12-19T06:56:36.942Z,22.88
2022-12-19T07:01:48.014Z,23.00
2022-12-19T07:06:49.928Z,22.58
2022-12-19T07:11:51.765Z,21.80
2022-12-19T07:16:54.237Z,24.05
2022-12-19T07:21:56.319Z,22.17
2022-12-19T07:26:58.311Z,21.77
2022-12-19T07:32:00.200Z,22.42
2022-12-19T07:37:02.122Z,24.10
2022-12-19T07:42:04.059Z,22.45
2022-12-19T07:47:10.768Z,22.85
2022-12-19T07:52:12.618Z,23.63
2022-12-19T07:57:14.450Z,23.13
2022-12-19T08:02:16.434Z,21.30
2022-12-19T08:07:18.283Z,21.70
2022-12-19T08:12:20.107Z,24.45
2022-12-19T08:17:22.261Z,21.92
2022-12-19T08:22:24.171Z,22.23
2022-12-19T08:27:26.109Z,20.38
2022-12-19T08:32:27.951Z,19.15
2022-12-19T08:37:29.763Z,18.83
2022-12-19T08:42:31.558Z,18.08
2022-12-19T08:47:33.399Z,17.98
2022-12-19T08:52:35.386Z,18.10
2022-12-19T08:57:37.203Z,16.60
2022-12-19T09:02:39.294Z,16.08
2022-12-19T09:07:41.199Z,17.08
2022-12-19T09:12:43.069Z,16.73
2022-12-19T09:17:44.968Z,16.48
2022-12-19T09:22:46.789Z,16.63
2022-12-19T09:28:25.891Z,18.85
2022-12-19T09:33:10.613Z,19.35
2022-12-19T09:38:12.420Z,17.77
2022-12-19T09:43:23.472Z,19.10
2022-12-19T09:48:25.360Z,18.30
2022-12-19T09:53:36.138Z,17.80
2022-12-19T09:58:41.051Z,18.15
2022-12-19T10:03:49.856Z,18.35
2022-12-19T10:10:11.750Z,16.20
2022-12-19T10:14:19.026Z,17.83
2022-12-19T10:19:36.437Z,16.98
2022-12-19T10:25:08.213Z,16.25
2022-12-19T10:30:14.143Z,16.83
2022-12-19T10:35:19.817Z,15.07
2022-12-19T10:40:33.154Z,15.43
2022-12-19T10:45:39.205Z,14.13
2022-12-19T10:50:42.479Z,14.52
2022-12-19T10:55:51.722Z,14.23
2022-12-19T11:00:59.706Z,14.13
2022-12-19T11:06:02.116Z,13.35
2022-12-19T11:13:31.863Z,13.80
2022-12-19T11:21:18.717Z,13.60
2022-12-19T11:29:44.851Z,13.35
2022-12-19T11:30:35.950Z,13.70
2022-12-19T11:33:07.312Z,14.02
2022-12-19T11:38:12.261Z,13.20
2022-12-19T11:43:43.910Z,12.13
2022-12-19T11:48:49.392Z,12.50
2022-12-19T11:54:11.440Z,12.60
2022-12-19T11:59:33.535Z,12.00
2022-12-19T12:04:54.065Z,12.15
2022-12-19T12:13:26.909Z,12.73
2022-12-19T12:27:05.767Z,12.57
2022-12-19T12:31:14.065Z,11.95
2022-12-19T12:31:47.164Z,11.88
2022-12-19T12:35:41.439Z,11.25
2022-12-19T12:43:06.326Z,10.95
2022-12-19T12:48:17.234Z,10.95
2022-12-19T12:53:21.309Z,11.30
2022-12-19T12:58:52.890Z,11.38
2022-12-19T13:03:58.235Z,11.30
2022-12-19T13:09:05.950Z,10.70
2022-12-19T13:14:26.672Z,10.98
2022-12-19T13:19:29.771Z,11.07
2022-12-19T13:24:57.925Z,10.57
2022-12-19T13:29:59.873Z,10.85
2022-12-19T13:35:19.055Z,9.68
2022-12-19T13:40:32.687Z,11.20
2022-12-19T13:45:35.182Z,10.15
2022-12-19T13:50:41.129Z,9.60
2022-12-19T13:55:43.300Z,9.55
2022-12-19T14:00:50.315Z,9.32
2022-12-19T14:06:15.941Z,8.45
2022-12-19T14:11:31.747Z,8.15
2022-12-19T14:16:44.819Z,8.82
2022-12-19T14:22:03.798Z,7.55
2022-12-19T14:28:23.214Z,7.63
2022-12-19T14:33:47.019Z,7.72
2022-12-19T14:39:24.940Z,8.63
2022-12-19T14:50:02.451Z,8.13
2022-12-19T14:54:17.042Z,8.15
2022-12-19T14:59:40.729Z,8.45
2022-12-19T15:04:52.642Z,8.27
2022-12-19T15:15:21.016Z,7.47
2022-12-19T15:20:22.840Z,7.45
2022-12-19T15:26:01.507Z,7.28
2022-12-19T15:30:49.727Z,8.18
2022-12-19T15:35:51.738Z,7.15
2022-12-19T15:40:53.533Z,7.65
2022-12-19T15:45:57.789Z,7.75
2022-12-19T15:50:59.619Z,7.80
2022-12-19T15:56:03.698Z,7.35
2022-12-19T16:01:05.613Z,7.50
2022-12-19T16:06:11.866Z,7.63
2022-12-19T16:11:18.512Z,6.88
2022-12-19T16:16:20.413Z,7.13
2022-12-19T16:21:33.306Z,7.00
2022-12-19T16:26:37.452Z,6.95
2022-12-19T16:36:41.034Z,6.53
2022-12-19T16:41:43.809Z,6.40
2022-12-19T16:46:50.663Z,6.00
2022-12-19T16:51:53.283Z,6.60
2022-12-19T16:56:55.206Z,6.65
2022-12-19T17:01:57.824Z,6.05
2022-12-19T17:06:59.812Z,6.35
2022-12-19T17:12:01.927Z,6.72
2022-12-19T17:17:03.836Z,6.25
2022-12-19T17:22:11.497Z,7.38
2022-12-19T17:27:15.815Z,7.90
2022-12-19T17:32:23.676Z,7.20
2022-12-19T17:37:25.973Z,7.70
2022-12-19T17:42:32.039Z,7.13
2022-12-19T17:47:37.196Z,6.68
2022-12-19T17:52:39.043Z,5.85
2022-12-19T17:57:40.854Z,7.07
2022-12-19T18:02:43.180Z,5.78
2022-12-19T18:07:45.921Z,6.40
2022-12-19T18:12:48.091Z,5.63
2022-12-19T18:17:51.192Z,6.10
2022-12-19T18:22:56.126Z,6.10
2022-12-19T18:27:58.483Z,6.07
2022-12-19T18:33:01.426Z,5.60
2022-12-19T18:38:07.872Z,5.68
2022-12-19T18:43:13.429Z,5.10
2022-12-19T18:48:35.591Z,5.20
2022-12-19T18:53:37.840Z,5.47
2022-12-19T18:58:39.693Z,6.10
2022-12-19T19:03:42.510Z,5.57
2022-12-19T19:08:47.183Z,5.57
2022-12-19T19:14:06.448Z,6.40
2022-12-19T19:19:09.935Z,5.47
2022-12-19T19:24:18.987Z,5.55
2022-12-19T19:29:20.790Z,4.72
2022-12-19T19:34:26.119Z,5.85
2022-12-19T19:39:29.334Z,5.47
2022-12-19T19:44:31.148Z,5.32
2022-12-19T19:49:32.944Z,5.05
2022-12-19T19:54:34.979Z,4.88
2022-12-19T19:59:36.817Z,5.15
2022-12-19T20:04:38.809Z,5.22
2022-12-19T20:09:40.717Z,5.20
2022-12-19T20:14:42.552Z,5.18
2022-12-19T20:19:44.385Z,5.13
2022-12-19T20:24:46.209Z,5.18
2022-12-19T20:29:48.010Z,5.35
2022-12-19T20:34:49.837Z,4.47
2022-12-19T20:39:52.022Z,4.68
2022-12-19T20:44:53.841Z,5.03
2022-12-19T20:49:55.700Z,4.53
2022-12-19T20:54:57.524Z,4.70
2022-12-19T20:59:59.328Z,5.18
2022-12-19T21:05:01.220Z,5.20
2022-12-19T21:10:03.161Z,5.20
2022-12-19T21:15:05.211Z,4.38
2022-12-19T21:20:07.375Z,4.40
2022-12-19T21:25:09.294Z,3.95
2022-12-19T21:30:11.268Z,4.28
2022-12-19T21:35:13.100Z,4.10
2022-12-19T21:40:15.098Z,4.45
2022-12-19T21:45:16.976Z,4.88
2022-12-19T21:50:19.127Z,4.20
2022-12-19T21:55:20.932Z,4.07
2022-12-19T22:00:22.876Z,4.20
2022-12-19T22:05:24.773Z,4.40
2022-12-19T22:10:26.667Z,4.68
2022-12-19T22:15:28.471Z,4.35
2022-12-19T22:20:30.288Z,4.57
2022-12-19T22:25:32.088Z,4.28
2022-12-19T22:30:34.723Z,4.95
2022-12-19T22:35:36.537Z,4.38
2022-12-19T22:40:38.342Z,4.50
2022-12-19T22:45:40.683Z,4.03
2022-12-19T22:50:45.751Z,4.10
2022-12-19T22:55:47.561Z,4.30
2022-12-19T23:00:49.417Z,4.20
2022-12-19T23:05:52.204Z,4.28
2022-12-19T23:10:54.436Z,4.30
2022-12-19T23:15:56.535Z,4.35
2022-12-19T23:21:09.137Z,3.83
2022-12-19T23:26:15.804Z,3.90
2022-12-19T23:31:18.243Z,4.28
2022-12-19T23:36:38.276Z,3.75
2022-12-19T23:41:42.164Z,3.90
2022-12-19T23:46:44.246Z,3.88
2022-12-19T23:51:46.058Z,3.58
2022-12-19T23:56:47.859Z,3.95
